createdAt,value
2018-09-22T00:01:12.461Z,14.30
2018-09-22T00:03:39.988Z,14.20
2018-09-22T00:06:07.528Z,14.10
2018-09-22T00:08:35.229Z,14.00
2018-09-22T00:11:03.054Z,14.10
2018-09-22T00:13:30.737Z,14.10
2018-09-22T00:15:58.280Z,14.20
2018-09-22T00:18:25.831Z,14.20
2018-09-22T00:20:53.392Z,14.20
2018-09-22T00:23:20.852Z,14.20
2018-09-22T00:25:48.392Z,14.30
2018-09-22T00:28:15.855Z,14.40
2018-09-22T00:30:43.334Z,14.40
2018-09-22T00:33:10.826Z,14.40
2018-09-22T00:35:38.284Z,14.40
2018-09-22T00:38:06.252Z,14.30
2018-09-22T00:40:33.797Z,14.20
2018-09-22T00:43:01.304Z,14.20
2018-09-22T00:45:28.746Z,14.10
2018-09-22T00:47:56.377Z,14.10
2018-09-22T00:50:23.931Z,14.10
2018-09-22T00:52:51.527Z,14.00
2018-09-22T00:55:19.170Z,13.90
2018-09-22T00:57:46.693Z,13.90
2018-09-22T01:00:14.185Z,13.80
2018-09-22T01:02:41.718Z,13.70
2018-09-22T01:05:09.229Z,13.70
2018-09-22T01:07:36.828Z,13.70
2018-09-22T01:10:04.570Z,13.70
2018-09-22T01:12:32.095Z,13.70
2018-09-22T01:14:59.586Z,13.70
2018-09-22T01:17:27.135Z,13.80
2018-09-22T01:19:54.629Z,13.80
2018-09-22T01:22:22.177Z,13.80
2018-09-22T01:24:49.698Z,13.90
2018-09-22T01:27:17.216Z,13.90
2018-09-22T01:29:44.782Z,14.00
2018-09-22T01:32:12.338Z,13.90
2018-09-22T01:34:39.797Z,13.90
2018-09-22T01:37:07.432Z,14.00
2018-09-22T01:39:44.354Z,14.10
2018-09-22T01:42:12.688Z,14.00
2018-09-22T01:44:40.876Z,13.90
2018-09-22T01:47:09.736Z,14.00
2018-09-22T01:49:37.343Z,14.00
2018-09-22T01:52:04.901Z,13.90
2018-09-22T01:54:33.147Z,13.80
2018-09-22T01:57:02.044Z,13.70
2018-09-22T01:59:29.875Z,13.70
2018-09-22T02:01:57.575Z,13.60
2018-09-22T02:04:25.200Z,13.60
2018-09-22T02:06:53.629Z,13.50
2018-09-22T02:09:21.163Z,13.40
2018-09-22T02:11:48.840Z,13.40
2018-09-22T02:14:16.382Z,13.40
2018-09-22T02:16:44.693Z,13.40
2018-09-22T02:19:12.527Z,13.30
2018-09-22T02:21:40.193Z,13.30
2018-09-22T02:24:07.719Z,13.30
2018-09-22T02:26:35.237Z,13.30
2018-09-22T02:29:03.603Z,13.20
2018-09-22T02:31:31.150Z,13.10
2018-09-22T02:36:33.502Z,13.10
2018-09-22T02:39:10.132Z,12.90
2018-09-22T02:41:38.811Z,12.80
2018-09-22T02:44:07.139Z,12.90
2018-09-22T02:46:35.555Z,12.90
2018-09-22T02:49:04.015Z,13.00
2018-09-22T02:51:31.568Z,13.00
2018-09-22T02:53:59.116Z,13.00
2018-09-22T02:56:26.716Z,13.00
2018-09-22T02:58:54.219Z,13.10
2018-09-22T03:01:21.803Z,13.00
2018-09-22T03:03:49.486Z,13.00
2018-09-22T03:06:17.356Z,13.10
2018-09-22T03:08:45.142Z,13.20
2018-09-22T03:11:12.744Z,13.20
2018-09-22T03:13:40.511Z,13.20
2018-09-22T03:16:08.115Z,13.30
2018-09-22T03:18:35.650Z,13.20
2018-09-22T03:21:03.319Z,13.40
2018-09-22T03:23:30.846Z,13.40
2018-09-22T03:25:58.359Z,13.40
2018-09-22T03:28:25.845Z,13.30
2018-09-22T03:30:53.365Z,13.30
2018-09-22T03:33:20.954Z,13.30
2018-09-22T03:35:48.485Z,13.20
2018-09-22T03:38:16.419Z,13.10
2018-09-22T03:40:43.951Z,13.10
2018-09-22T03:43:11.531Z,13.20
2018-09-22T03:45:39.022Z,13.20
2018-09-22T03:48:06.598Z,13.20
2018-09-22T03:50:34.679Z,13.20
2018-09-22T03:53:02.222Z,13.20
2018-09-22T03:55:29.771Z,13.20
2018-09-22T03:57:57.434Z,13.20
2018-09-22T04:00:24.957Z,13.20
2018-09-22T04:02:52.533Z,13.20
2018-09-22T04:05:20.088Z,13.10
2018-09-22T04:07:47.756Z,13.10
2018-09-22T04:10:15.287Z,13.10
2018-09-22T04:12:42.897Z,13.10
2018-09-22T04:15:10.441Z,13.00
2018-09-22T04:17:38.039Z,13.10
2018-09-22T04:20:05.750Z,13.00
2018-09-22T04:22:33.216Z,13.00
2018-09-22T04:25:00.824Z,13.00
2018-09-22T04:27:28.310Z,12.90
2018-09-22T04:29:56.103Z,12.90
2018-09-22T04:32:23.925Z,12.80
2018-09-22T04:34:51.430Z,12.80
2018-09-22T04:37:18.968Z,12.80
2018-09-22T04:39:46.520Z,12.80
2018-09-22T04:42:14.098Z,12.80
2018-09-22T04:44:41.638Z,12.80
2018-09-22T04:47:09.177Z,12.90
2018-09-22T04:49:36.664Z,12.90
2018-09-22T04:52:04.219Z,12.90
2018-09-22T04:54:31.780Z,12.80
2018-09-22T04:56:59.310Z,12.80
2018-09-22T04:59:27.172Z,12.90
2018-09-22T05:01:54.689Z,12.90
2018-09-22T05:04:22.219Z,12.90
2018-09-22T05:06:49.808Z,12.80
2018-09-22T05:09:17.496Z,12.80
2018-09-22T05:11:45.069Z,12.80
2018-09-22T05:14:12.543Z,12.80
2018-09-22T05:16:40.024Z,12.70
2018-09-22T05:19:07.629Z,12.70
2018-09-22T05:21:35.239Z,12.70
2018-09-22T05:24:04.167Z,12.50
2018-09-22T05:26:34.388Z,12.70
2018-09-22T05:29:09.512Z,12.60
2018-09-22T05:31:39.562Z,12.70
2018-09-22T05:34:09.404Z,12.60
2018-09-22T05:36:43.052Z,12.60
2018-09-22T05:39:12.518Z,12.70
2018-09-22T05:41:40.342Z,12.60
2018-09-22T05:44:08.783Z,12.50
2018-09-22T05:46:37.557Z,12.60
2018-09-22T05:49:05.328Z,12.60
2018-09-22T05:51:34.471Z,12.50
2018-09-22T05:54:02.389Z,12.50
2018-09-22T05:56:32.386Z,12.50
2018-09-22T05:59:04.164Z,12.60
2018-09-22T06:01:34.571Z,12.60
2018-09-22T06:04:06.508Z,12.60
2018-09-22T06:06:35.566Z,12.70
2018-09-22T06:09:04.954Z,12.80
2018-09-22T06:11:32.702Z,12.70
2018-09-22T06:14:01.310Z,12.80
2018-09-22T06:16:29.708Z,12.80
2018-09-22T06:18:57.887Z,12.80
2018-09-22T06:21:27.429Z,12.90
2018-09-22T06:23:59.621Z,12.90
2018-09-22T06:26:33.959Z,12.90
2018-09-22T06:29:02.078Z,12.90
2018-09-22T06:31:34.767Z,12.90
2018-09-22T06:34:03.328Z,12.90
2018-09-22T06:36:31.901Z,13.00
2018-09-22T06:38:59.906Z,13.00
2018-09-22T06:41:28.814Z,13.10
2018-09-22T06:43:57.451Z,13.20
2018-09-22T06:46:43.203Z,13.20
2018-09-22T06:49:11.373Z,13.20
2018-09-22T06:51:40.451Z,13.30
2018-09-22T06:54:22.150Z,13.40
2018-09-22T06:59:32.753Z,13.40
2018-09-22T07:02:00.489Z,13.30
2018-09-22T07:04:29.035Z,13.40
2018-09-22T07:06:57.727Z,13.40
2018-09-22T07:09:26.246Z,13.40
2018-09-22T07:11:54.212Z,13.40
2018-09-22T07:14:22.906Z,13.50
2018-09-22T07:16:51.505Z,13.50
2018-09-22T07:19:20.875Z,13.50
2018-09-22T07:22:03.376Z,13.60
2018-09-22T07:24:31.928Z,13.60
2018-09-22T07:27:05.210Z,13.70
2018-09-22T07:29:36.029Z,13.70
2018-09-22T07:32:07.148Z,13.70
2018-09-22T07:34:41.973Z,13.80
2018-09-22T07:37:10.755Z,13.80
2018-09-22T07:39:43.803Z,13.80
2018-09-22T07:42:17.543Z,13.80
2018-09-22T07:44:45.774Z,13.90
2018-09-22T07:47:13.889Z,13.90
2018-09-22T07:49:41.926Z,13.90
2018-09-22T07:52:13.922Z,14.00
2018-09-22T07:54:47.897Z,14.00
2018-09-22T07:57:23.039Z,14.10
2018-09-22T07:59:58.348Z,14.10
2018-09-22T08:02:27.662Z,14.20
2018-09-22T08:04:58.650Z,14.20
2018-09-22T08:07:29.451Z,14.30
2018-09-22T08:09:59.165Z,14.20
2018-09-22T08:12:27.362Z,14.30
2018-09-22T08:14:58.225Z,14.30
2018-09-22T08:17:29.636Z,14.30
2018-09-22T08:20:03.719Z,14.50
2018-09-22T08:22:33.187Z,14.60
2018-09-22T08:25:02.376Z,14.60
2018-09-22T08:27:32.327Z,14.50
2018-09-22T08:30:01.338Z,14.60
2018-09-22T08:32:30.813Z,14.70
2018-09-22T08:35:00.277Z,14.70
2018-09-22T08:37:31.311Z,14.80
2018-09-22T08:40:00.732Z,14.90
2018-09-22T08:42:44.057Z,15.10
2018-09-22T08:45:13.272Z,15.10
2018-09-22T08:48:21.727Z,15.20
2018-09-22T08:51:04.418Z,15.20
2018-09-22T08:53:33.700Z,15.20
2018-09-22T08:56:05.347Z,15.10
2018-09-22T08:58:38.377Z,15.10
2018-09-22T09:01:10.753Z,15.20
2018-09-22T09:03:43.625Z,15.20
2018-09-22T09:06:12.555Z,15.30
2018-09-22T09:08:43.418Z,15.40
2018-09-22T09:11:16.436Z,15.40
2018-09-22T09:13:50.841Z,15.50
2018-09-22T09:16:20.304Z,15.50
2018-09-22T09:18:50.099Z,15.50
2018-09-22T09:21:18.121Z,15.50
2018-09-22T09:23:51.802Z,15.60
2018-09-22T09:29:25.405Z,15.80
2018-09-22T09:32:02.260Z,15.80
2018-09-22T09:34:30.762Z,15.80
2018-09-22T09:36:59.860Z,15.80
2018-09-22T09:39:29.057Z,15.90
2018-09-22T09:41:57.497Z,15.90
2018-09-22T09:44:25.996Z,16.00
2018-09-22T09:46:55.209Z,16.10
2018-09-22T09:49:22.937Z,16.10
2018-09-22T09:51:58.901Z,16.10
2018-09-22T09:54:29.338Z,16.10
2018-09-22T09:56:57.453Z,16.20
2018-09-22T09:59:28.124Z,16.20
2018-09-22T10:01:59.438Z,16.30
2018-09-22T10:04:27.972Z,16.40
2018-09-22T10:06:56.578Z,16.50
2018-09-22T10:09:25.247Z,16.60
2018-09-22T10:11:54.595Z,16.50
2018-09-22T10:14:24.451Z,16.50
2018-09-22T10:16:55.187Z,16.50
2018-09-22T10:19:24.918Z,16.50
2018-09-22T10:21:53.733Z,16.70
2018-09-22T10:24:29.427Z,16.80
2018-09-22T10:27:00.997Z,16.90
2018-09-22T10:29:29.741Z,16.90
2018-09-22T10:31:58.369Z,16.80
2018-09-22T10:34:28.779Z,16.90
2018-09-22T10:37:00.414Z,17.00
2018-09-22T10:39:29.647Z,17.10
2018-09-22T10:41:59.465Z,17.20
2018-09-22T10:44:35.576Z,17.30
2018-09-22T10:49:46.826Z,17.50
2018-09-22T10:52:20.572Z,17.50
2018-09-22T10:54:49.824Z,17.50
2018-09-22T10:57:17.851Z,17.60
2018-09-22T10:59:46.060Z,17.70
2018-09-22T11:02:15.579Z,17.70
2018-09-22T11:04:48.640Z,17.80
2018-09-22T11:07:17.601Z,17.90
2018-09-22T11:09:46.810Z,17.80
2018-09-22T11:12:16.041Z,17.60
2018-09-22T11:14:46.769Z,17.70
2018-09-22T11:17:15.678Z,17.80
2018-09-22T11:19:44.015Z,17.80
2018-09-22T11:22:12.931Z,17.80
2018-09-22T11:27:19.237Z,17.70
2018-09-22T11:29:53.924Z,17.60
2018-09-22T11:32:23.733Z,17.60
2018-09-22T11:34:52.694Z,17.60
2018-09-22T11:37:21.367Z,17.70
2018-09-22T11:39:51.077Z,17.80
2018-09-22T11:42:20.780Z,17.90
2018-09-22T11:44:50.295Z,18.10
2018-09-22T11:47:18.160Z,18.20
2018-09-22T11:49:48.457Z,18.20
2018-09-22T11:52:18.546Z,18.40
2018-09-22T11:54:46.724Z,18.60
2018-09-22T11:57:15.383Z,18.70
2018-09-22T11:59:43.861Z,18.60
2018-09-22T12:02:17.056Z,18.60
2018-09-22T12:04:44.903Z,18.60
2018-09-22T12:07:12.862Z,18.70
2018-09-22T12:09:42.067Z,18.70
2018-09-22T12:12:10.956Z,18.80
2018-09-22T12:14:41.771Z,18.70
2018-09-22T12:17:10.260Z,18.80
2018-09-22T12:19:38.281Z,18.80
2018-09-22T12:22:10.827Z,18.80
2018-09-22T12:24:38.511Z,18.80
2018-09-22T12:27:06.375Z,18.80
2018-09-22T12:31:24.895Z,18.80
2018-09-22T12:33:53.138Z,18.90
2018-09-22T12:36:27.081Z,18.90
2018-09-22T12:38:57.436Z,18.80
2018-09-22T12:41:26.881Z,18.90
2018-09-22T12:44:03.133Z,18.90
2018-09-22T12:46:32.737Z,19.00
2018-09-22T12:49:03.248Z,18.80
2018-09-22T12:51:34.583Z,19.20
2018-09-22T12:54:11.313Z,19.30
2018-09-22T12:56:40.589Z,19.20
2018-09-22T12:59:13.477Z,19.10
2018-09-22T13:01:42.752Z,19.20
2018-09-22T13:04:12.337Z,19.10
2018-09-22T13:06:41.867Z,19.00
2018-09-22T13:09:17.936Z,19.00
2018-09-22T13:11:46.513Z,18.90
2018-09-22T13:14:14.500Z,19.00
2018-09-22T13:16:47.636Z,18.90
2018-09-22T13:19:17.677Z,18.90
2018-09-22T13:21:53.702Z,18.90
2018-09-22T13:24:27.074Z,19.00
2018-09-22T13:26:59.519Z,19.00
2018-09-22T13:29:28.731Z,18.90
2018-09-22T13:32:02.215Z,18.90
2018-09-22T13:34:38.584Z,18.90
2018-09-22T13:37:11.519Z,18.90
2018-09-22T13:39:42.638Z,18.90
2018-09-22T13:42:11.028Z,18.80
2018-09-22T13:44:39.496Z,18.80
2018-09-22T13:47:14.399Z,18.70
2018-09-22T13:49:43.855Z,18.70
2018-09-22T13:52:12.893Z,18.80
2018-09-22T13:54:42.511Z,18.80
2018-09-22T13:57:18.188Z,18.80
2018-09-22T13:59:46.645Z,18.60
2018-09-22T14:02:27.883Z,18.60
2018-09-22T14:05:01.816Z,18.70
2018-09-22T14:28:36.285Z,18.80
2018-09-22T14:31:17.184Z,18.80
2018-09-22T14:33:56.691Z,18.90
2018-09-22T14:36:34.784Z,18.80
2018-09-22T14:39:11.804Z,19.00
2018-09-22T14:41:52.530Z,19.00
2018-09-22T14:44:24.928Z,18.90
2018-09-22T14:46:56.256Z,18.90
2018-09-22T14:49:25.799Z,18.70
2018-09-22T14:54:56.275Z,18.70
2018-09-22T14:57:26.624Z,18.60
2018-09-22T15:00:04.605Z,18.70
2018-09-22T15:02:33.795Z,18.60
2018-09-22T15:05:14.338Z,18.40
2018-09-22T15:07:54.257Z,18.40
2018-09-22T15:10:29.970Z,18.40
2018-09-22T15:13:03.657Z,18.30
2018-09-22T15:15:35.593Z,18.30
2018-09-22T15:18:08.568Z,18.20
2018-09-22T15:20:37.009Z,18.20
2018-09-22T15:23:06.801Z,18.20
2018-09-22T15:25:39.347Z,18.00
2018-09-22T15:28:12.026Z,18.00
2018-09-22T15:30:42.222Z,18.00
2018-09-22T15:33:13.863Z,17.90
2018-09-22T15:35:48.226Z,17.80
2018-09-22T15:38:20.735Z,17.90
2018-09-22T15:40:54.086Z,17.90
2018-09-22T15:43:23.994Z,17.80
2018-09-22T15:45:54.583Z,17.80
2018-09-22T15:48:24.308Z,17.60
2018-09-22T15:50:54.999Z,17.60
2018-09-22T15:53:24.394Z,17.40
2018-09-22T15:55:57.011Z,17.20
2018-09-22T15:58:27.943Z,17.20
2018-09-22T16:00:57.332Z,17.00
2018-09-22T16:03:27.396Z,17.10
2018-09-22T16:05:57.013Z,16.90
2018-09-22T16:08:25.281Z,16.90
2018-09-22T16:10:54.417Z,16.90
2018-09-22T16:13:22.855Z,16.70
2018-09-22T16:15:52.127Z,16.50
2018-09-22T16:18:20.893Z,16.50
2018-09-22T16:20:49.904Z,16.50
2018-09-22T16:23:18.819Z,16.30
2018-09-22T16:25:47.537Z,16.10
2018-09-22T16:28:16.467Z,16.10
2018-09-22T16:30:46.420Z,16.10
2018-09-22T16:33:15.159Z,16.00
2018-09-22T16:35:44.012Z,16.00
2018-09-22T16:38:13.440Z,16.10
2018-09-22T16:40:47.995Z,16.10
2018-09-22T16:43:16.836Z,16.20
2018-09-22T16:45:49.386Z,16.20
2018-09-22T16:48:19.640Z,16.30
2018-09-22T16:50:49.528Z,16.30
2018-09-22T16:53:18.628Z,16.30
2018-09-22T16:55:52.585Z,16.30
2018-09-22T16:58:21.992Z,16.30
2018-09-22T17:00:51.644Z,16.40
2018-09-22T17:03:21.280Z,16.30
2018-09-22T17:05:55.295Z,16.20
2018-09-22T17:11:02.967Z,16.10
2018-09-22T17:13:37.404Z,16.10
2018-09-22T17:16:11.480Z,15.90
2018-09-22T17:19:11.152Z,15.90
2018-09-22T17:21:40.572Z,15.80
2018-09-22T17:26:57.326Z,15.40
2018-09-22T17:29:33.821Z,15.20
2018-09-22T17:32:01.962Z,15.10
2018-09-22T17:34:31.139Z,14.80
2018-09-22T17:37:04.189Z,14.60
2018-09-22T17:39:33.524Z,14.40
2018-09-22T17:42:03.168Z,14.20
2018-09-22T17:44:32.924Z,14.00
2018-09-22T17:47:02.257Z,13.90
2018-09-22T17:49:31.852Z,13.70
2018-09-22T17:52:04.449Z,13.60
2018-09-22T17:54:34.679Z,13.60
2018-09-22T17:57:03.356Z,13.50
2018-09-22T17:59:32.999Z,13.50
2018-09-22T18:02:03.022Z,13.60
2018-09-22T18:04:31.408Z,13.60
2018-09-22T18:06:59.734Z,13.70
2018-09-22T18:09:27.479Z,13.50
2018-09-22T18:11:55.528Z,13.50
2018-09-22T18:14:23.225Z,13.60
2018-09-22T18:16:51.342Z,13.50
2018-09-22T18:19:18.890Z,13.40
2018-09-22T18:21:46.676Z,13.50
2018-09-22T18:24:14.413Z,13.40
2018-09-22T18:26:42.049Z,13.40
2018-09-22T18:29:09.864Z,13.50
2018-09-22T18:31:37.424Z,13.60
2018-09-22T18:34:05.147Z,13.60
2018-09-22T18:36:32.761Z,13.70
2018-09-22T18:39:00.606Z,13.70
2018-09-22T18:41:28.575Z,13.80
2018-09-22T18:43:56.272Z,13.90
2018-09-22T18:46:23.959Z,14.00
2018-09-22T18:48:51.702Z,14.10
2018-09-22T18:51:19.259Z,14.20
2018-09-22T18:53:47.960Z,14.30
2018-09-22T18:56:15.671Z,14.30
2018-09-22T18:58:43.311Z,14.40
2018-09-22T19:01:11.000Z,14.50
2018-09-22T19:03:38.701Z,14.40
2018-09-22T19:06:06.942Z,14.40
2018-09-22T19:08:34.647Z,14.50
2018-09-22T19:11:02.564Z,14.50
2018-09-22T19:13:36.342Z,14.50
2018-09-22T19:16:08.776Z,13.90
2018-09-22T19:18:44.598Z,14.50
2018-09-22T19:21:17.200Z,14.60
2018-09-22T19:23:48.419Z,14.50
2018-09-22T19:26:19.808Z,14.50
2018-09-22T19:28:53.000Z,14.60
2018-09-22T19:31:27.344Z,14.50
2018-09-22T19:33:57.981Z,14.50
2018-09-22T19:36:31.280Z,14.50
2018-09-22T19:39:01.937Z,14.50
2018-09-22T19:41:34.159Z,14.50
2018-09-22T19:44:06.925Z,14.50
2018-09-22T19:46:38.845Z,14.40
2018-09-22T19:49:11.154Z,14.60
2018-09-22T19:51:44.613Z,14.50
2018-09-22T19:54:12.443Z,14.60
2018-09-22T19:56:40.245Z,14.60
2018-09-22T19:59:08.167Z,14.70
2018-09-22T20:01:39.257Z,14.70
2018-09-22T20:04:07.323Z,14.60
2018-09-22T20:06:36.357Z,14.20
2018-09-22T20:09:05.334Z,14.60
2018-09-22T20:11:33.283Z,14.50
2018-09-22T20:14:01.232Z,14.60
2018-09-22T20:16:29.095Z,14.70
2018-09-22T20:18:56.930Z,14.80
2018-09-22T20:21:24.626Z,14.80
2018-09-22T20:23:52.772Z,14.80
2018-09-22T20:26:20.425Z,14.80
2018-09-22T20:28:48.039Z,14.70
2018-09-22T20:31:15.921Z,14.60
2018-09-22T20:33:43.500Z,14.50
2018-09-22T20:36:11.382Z,14.50
2018-09-22T20:38:39.280Z,14.50
2018-09-22T20:41:06.969Z,14.40
2018-09-22T20:43:34.640Z,14.70
2018-09-22T20:46:02.804Z,14.70
2018-09-22T20:48:30.381Z,14.70
2018-09-22T20:50:58.044Z,14.60
2018-09-22T20:53:25.715Z,14.60
2018-09-22T20:55:53.361Z,14.60
2018-09-22T20:58:21.017Z,14.50
2018-09-22T21:00:48.789Z,14.40
2018-09-22T21:03:16.384Z,14.40
2018-09-22T21:05:44.128Z,14.40
2018-09-22T21:08:12.623Z,14.50
2018-09-22T21:10:40.621Z,14.40
2018-09-22T21:13:08.503Z,14.30
2018-09-22T21:15:36.083Z,14.30
2018-09-22T21:18:03.749Z,14.50
2018-09-22T21:20:31.316Z,14.60
2018-09-22T21:22:59.050Z,14.50
2018-09-22T21:25:26.872Z,14.50
2018-09-22T21:27:54.625Z,14.50
2018-09-22T21:30:22.531Z,14.40
2018-09-22T21:32:50.248Z,14.40
2018-09-22T21:35:17.814Z,14.30
2018-09-22T21:37:45.536Z,14.40
2018-09-22T21:40:13.489Z,14.40
2018-09-22T21:42:41.760Z,14.40
2018-09-22T21:45:09.540Z,14.40
2018-09-22T21:47:37.320Z,14.40
2018-09-22T21:50:05.087Z,14.30
2018-09-22T21:52:32.828Z,14.40
2018-09-22T21:55:00.708Z,14.30
2018-09-22T21:57:28.303Z,14.40
2018-09-22T21:59:55.880Z,14.40
2018-09-22T22:02:23.633Z,14.20
2018-09-22T22:04:51.292Z,14.40
2018-09-22T22:07:19.375Z,14.40
2018-09-22T22:09:47.012Z,14.40
2018-09-22T22:12:14.766Z,14.40
2018-09-22T22:14:42.651Z,14.40
2018-09-22T22:17:10.532Z,14.40
2018-09-22T22:19:38.307Z,14.40
2018-09-22T22:22:06.045Z,14.20
2018-09-22T22:24:33.981Z,14.30
2018-09-22T22:27:01.966Z,14.40
2018-09-22T22:29:29.921Z,14.40
2018-09-22T22:31:57.975Z,14.40
2018-09-22T22:34:25.780Z,14.20
2018-09-22T22:36:53.520Z,14.20
2018-09-22T22:39:21.640Z,13.60
2018-09-22T22:41:49.701Z,14.10
2018-09-22T22:44:17.872Z,14.20
2018-09-22T22:46:46.522Z,14.20
2018-09-22T22:49:14.489Z,14.60
2018-09-22T22:51:42.377Z,14.30
2018-09-22T22:54:10.153Z,14.30
2018-09-22T22:56:38.238Z,14.30
2018-09-22T22:59:06.304Z,14.30
2018-09-22T23:01:34.261Z,14.40
2018-09-22T23:04:02.284Z,13.70
2018-09-22T23:06:30.195Z,14.40
2018-09-22T23:08:58.100Z,14.30
2018-09-22T23:11:26.035Z,14.40
2018-09-22T23:13:54.003Z,14.30
2018-09-22T23:16:29.164Z,14.20
2018-09-22T23:18:57.506Z,14.10
2018-09-22T23:21:26.547Z,14.30
2018-09-22T23:23:55.502Z,14.20
2018-09-22T23:26:24.326Z,14.40
2018-09-22T23:28:53.732Z,14.30
2018-09-22T23:31:22.901Z,14.20
2018-09-22T23:33:59.054Z,14.30
2018-09-22T23:36:27.101Z,14.00
2018-09-22T23:38:55.587Z,14.30
2018-09-22T23:41:23.823Z,14.20
2018-09-22T23:43:52.213Z,14.30
2018-09-22T23:46:19.983Z,14.00
2018-09-22T23:48:48.668Z,14.20
2018-09-22T23:51:16.947Z,14.20
2018-09-22T23:53:45.534Z,14.10
2018-09-22T23:56:13.474Z,14.20
2018-09-22T23:58:41.212Z,14.00
